Time;durP1;ratioP1;P1;durP2;ratioP2;P2;SDS_P1;SDS_P2;PMS_P1;PMS_P2;Temp;Humidity;BMP_temperature;BMP_pressure;BME280_temperature;BME280_humidity;BME280_pressure;Samples;Min_cycle;Max_cycle;Signal;HPM_P1;HPM_P2
2021/11/12 00:13:41;;;;;;;96.93;51.63;;;;;;;6.97;100.00;101794.03;4988379;28;20495;-87
2021/11/12 00:16:25;;;;;;;94.72;53.40;;;;;;;6.98;100.00;101791.22;4948489;28;20065;-86
2021/11/12 00:18:51;;;;;;;105.07;55.50;;;;;;;6.99;100.00;101794.75;4949708;28;20051;-87
2021/11/12 00:21:19;;;;;;;96.68;52.47;;;;;;;6.99;100.00;101795.63;4967620;28;20499;-87
2021/11/12 00:23:46;;;;;;;99.72;56.03;;;;;;;6.98;100.00;101790.38;4961859;28;20090;-87
2021/11/12 00:26:25;;;;;;;92.15;50.95;;;;;;;6.97;100.00;101784.19;4967174;28;20041;-86
2021/11/12 00:28:56;;;;;;;98.97;52.22;;;;;;;6.99;100.00;101779.59;4948373;28;20062;-87
2021/11/12 00:37:37;;;;;;;100.90;51.35;;;;;;;6.97;100.00;101778.03;4979177;28;20089;-87
2021/11/12 00:39:46;;;;;;;99.60;55.00;;;;;;;6.97;100.00;101783.34;4986007;28;20034;-87
2021/11/12 00:42:26;;;;;;;101.03;51.85;;;;;;;6.96;100.00;101785.19;4978028;28;20384;-87
2021/11/12 00:47:26;;;;;;;;;;;;;;;6.95;100.00;101778.13;4958672;28;20046;-87
2021/11/12 00:53:41;;;;;;;98.25;51.60;;;;;;;6.88;100.00;101771.56;4982578;28;20097;-87
2021/11/12 00:55:37;;;;;;;100.45;50.90;;;;;;;6.91;100.00;101771.31;4983815;28;20062;-87
2021/11/12 00:58:14;;;;;;;100.25;53.05;;;;;;;6.95;100.00;101772.78;4985649;28;20034;-86
2021/11/12 01:00:43;;;;;;;99.57;53.00;;;;;;;6.98;100.00;101766.38;4984624;28;20046;-86
2021/11/12 01:03:10;;;;;;;94.38;53.85;;;;;;;7.00;100.00;101759.09;4981221;28;20043;-86
2021/11/12 01:05:39;;;;;;;99.00;54.33;;;;;;;7.00;100.00;101765.28;4988900;28;20574;-87
2021/11/12 01:08:08;;;;;;;99.10;52.88;;;;;;;7.02;100.00;101762.50;4969451;28;20043;-87
2021/11/12 01:10:33;;;;;;;100.23;51.17;;;;;;;7.05;100.00;101758.72;4980478;28;20038;-86
2021/11/12 01:13:10;;;;;;;87.35;46.53;;;;;;;7.06;100.00;101753.28;4989412;28;20277;-88
2021/11/12 01:15:37;;;;;;;95.47;48.63;;;;;;;7.07;100.00;101757.66;4984260;28;20038;-87
2021/11/12 01:18:03;;;;;;;86.70;44.88;;;;;;;7.09;100.00;101736.19;4971059;28;20435;-88
2021/11/12 01:20:37;;;;;;;87.18;47.42;;;;;;;7.10;100.00;101736.06;4986603;28;20039;-87
2021/11/12 01:23:03;;;;;;;93.90;50.17;;;;;;;7.14;100.00;101739.34;4966195;28;20038;-87
2021/11/12 01:25:30;;;;;;;89.15;47.47;;;;;;;7.15;100.00;101733.88;4971142;28;20042;-87
2021/11/12 01:27:55;;;;;;;91.13;48.20;;;;;;;7.17;100.00;101731.13;4954063;28;20133;-86
2021/11/12 01:30:23;;;;;;;96.13;49.50;;;;;;;7.18;100.00;101730.13;4962604;28;20110;-86
2021/11/12 01:32:51;;;;;;;88.40;46.85;;;;;;;7.18;100.00;101730.13;4974984;28;20491;-87
2021/11/12 01:35:20;;;;;;;87.88;49.47;;;;;;;7.21;100.00;101729.88;4966193;28;20415;-87
2021/11/12 01:37:46;;;;;;;88.47;48.50;;;;;;;7.21;100.00;101724.56;5006374;28;20073;-88
2021/11/12 01:40:32;;;;;;;84.85;46.33;;;;;;;7.21;100.00;101724.56;5002923;28;20121;-86
2021/11/12 01:43:12;;;;;;;86.78;46.75;;;;;;;7.19;100.00;101721.13;4981070;28;20116;-87
2021/11/12 01:53:41;;;;;;;85.72;47.50;;;;;;;7.21;100.00;101728.06;4991664;28;20034;-87
2021/11/12 02:01:23;;;;;;;84.78;44.83;;;;;;;7.18;100.00;101724.78;4988566;28;20049;-87
2021/11/12 02:03:51;;;;;;;83.38;46.17;;;;;;;7.17;100.00;101713.28;4987582;28;20057;-86
2021/11/12 02:06:20;;;;;;;84.13;44.75;;;;;;;7.19;100.00;101710.47;4949428;28;20053;-87
2021/11/12 02:08:51;;;;;;;83.32;46.70;;;;;;;7.19;100.00;101702.47;4967102;28;20130;-87
2021/11/12 02:11:19;;;;;;;79.55;48.00;;;;;;;7.21;100.00;101698.69;4974145;28;20068;-85
2021/11/12 02:13:58;;;;;;;80.13;46.08;;;;;;;7.21;100.00;101692.50;4972382;28;20054;-86
2021/11/12 02:16:30;;;;;;;85.40;51.13;;;;;;;7.20;100.00;101682.81;4989015;28;20045;-86
2021/11/12 02:18:57;;;;;;;85.20;47.42;;;;;;;7.19;100.00;101689.09;4983180;28;20042;-86
2021/11/12 02:21:33;;;;;;;78.60;47.88;;;;;;;7.17;100.00;101688.41;4972058;28;20164;-86
2021/11/12 02:24:12;;;;;;;84.35;49.72;;;;;;;7.15;100.00;101688.50;4967167;28;20046;-87
2021/11/12 02:26:41;;;;;;;82.15;47.58;;;;;;;7.12;100.00;101687.91;4984748;28;20042;-86
2021/11/12 02:29:16;;;;;;;81.47;47.78;;;;;;;7.09;100.00;101691.66;4989577;28;20042;-86
2021/11/12 02:31:55;;;;;;;85.82;47.83;;;;;;;7.09;100.00;101686.31;4956141;28;20042;-85
2021/11/12 02:34:21;;;;;;;87.47;49.45;;;;;;;7.09;100.00;101685.47;4968677;28;20043;-87
2021/11/12 02:36:49;;;;;;;81.68;49.92;;;;;;;7.10;100.00;101684.50;4973507;28;20039;-87
2021/11/12 02:39:20;;;;;;;84.63;48.33;;;;;;;7.09;100.00;101674.81;4984540;28;21008;-86
2021/11/12 02:41:48;;;;;;;82.25;50.47;;;;;;;7.09;100.00;101674.81;4985302;28;20622;-86
2021/11/12 02:44:20;;;;;;;80.38;46.00;;;;;;;7.07;100.00;101663.38;4956344;28;20055;-87
2021/11/12 02:46:46;;;;;;;92.63;49.72;;;;;;;7.06;100.00;101672.38;4976535;28;20109;-86
2021/11/12 02:49:15;;;;;;;79.88;48.97;;;;;;;7.05;100.00;101662.66;4957913;28;20142;-86
2021/11/12 02:51:53;;;;;;;81.78;49.58;;;;;;;7.03;100.00;101672.63;4957861;28;20044;-87
2021/11/12 02:54:22;;;;;;;81.85;49.97;;;;;;;7.01;100.00;101668.22;4985108;28;20113;-86
2021/11/12 02:56:51;;;;;;;84.15;50.05;;;;;;;7.01;100.00;101665.56;4996196;28;20454;-87
2021/11/12 02:59:17;;;;;;;83.75;49.78;;;;;;;7.01;100.00;101670.91;4984030;28;20047;-87
2021/11/12 03:01:51;;;;;;;86.72;50.60;;;;;;;6.99;100.00;101659.50;4963163;28;20453;-87
2021/11/12 03:04:24;;;;;;;82.35;46.58;;;;;;;6.98;100.00;101668.47;4954718;28;20043;-87
2021/11/12 03:06:49;;;;;;;82.40;47.80;;;;;;;6.98;100.00;101668.47;4948680;28;20058;-86
2021/11/12 03:09:16;;;;;;;78.93;49.47;;;;;;;6.98;100.00;101665.78;4968621;28;20046;-85
2021/11/12 03:11:56;;;;;;;81.40;46.38;;;;;;;6.98;100.00;101664.97;4968168;28;20066;-87
2021/11/12 03:14:29;;;;;;;76.57;44.60;;;;;;;6.98;100.00;101662.28;4968437;28;20046;-87
2021/11/12 03:16:55;;;;;;;83.55;47.13;;;;;;;6.99;100.00;101662.19;4988069;28;20046;-87
2021/11/12 03:19:25;;;;;;;85.15;48.78;;;;;;;7.01;100.00;101656.72;4962493;28;20504;-86
2021/11/12 03:22:03;;;;;;;82.90;45.75;;;;;;;6.99;100.00;101659.50;4982659;28;20046;-87
2021/11/12 03:24:38;;;;;;;73.55;45.78;;;;;;;6.99;100.00;101651.50;4961413;28;20037;-86
2021/11/12 04:00:56;;;;;;;76.25;43.70;;;;;;;6.83;100.00;101621.66;4949474;29;20107;-85
2021/11/12 04:22:15;;;;;;;77.47;45.55;;;;;;;6.82;100.00;101614.63;4980505;28;20496;-87
2021/11/12 05:34:26;;;;;;;91.35;54.30;;;;;;;6.25;100.00;101496.38;4920260;28;20039;-88
2021/11/12 05:55:36;;;;;;;106.78;57.88;;;;;;;5.84;100.00;101470.19;4965107;28;20042;-88
2021/11/12 05:58:08;;;;;;;106.07;60.08;;;;;;;5.76;100.00;101465.47;4960419;28;20129;-86
2021/11/12 06:00:33;;;;;;;107.78;61.95;;;;;;;5.68;100.00;101451.03;4972289;28;20045;-86
2021/11/12 06:03:01;;;;;;;118.53;65.55;;;;;;;5.59;100.00;101444.59;4960889;28;20050;-87
2021/11/12 06:05:26;;;;;;;117.78;65.32;;;;;;;5.55;100.00;101433.34;5004986;28;20583;-87
2021/11/12 06:07:52;;;;;;;122.75;71.60;;;;;;;5.58;100.00;101426.91;4981116;28;20046;-88
2021/11/12 06:10:19;;;;;;;120.78;65.07;;;;;;;5.55;100.00;101422.69;4974157;28;20085;-86
2021/11/12 06:12:47;;;;;;;128.65;68.82;;;;;;;5.55;100.00;101409.38;4991999;28;20433;-87
2021/11/12 06:15:13;;;;;;;128.13;72.93;;;;;;;5.53;100.00;101400.66;4982527;28;20043;-86
2021/11/12 06:17:38;;;;;;;121.25;68.60;;;;;;;5.55;100.00;101400.50;4978961;28;20532;-86
2021/11/12 06:20:05;;;;;;;124.43;70.07;;;;;;;5.55;100.00;101401.38;4953020;28;20117;-87
2021/11/12 06:22:30;;;;;;;119.75;70.03;;;;;;;5.53;100.00;101402.47;4989505;28;20041;-87
2021/11/12 06:24:57;;;;;;;119.97;67.85;;;;;;;5.49;100.00;101395.66;4990660;28;20050;-86
2021/11/12 06:27:24;;;;;;;117.18;67.10;;;;;;;5.47;100.00;101406.44;5007426;28;20046;-86
2021/11/12 06:29:50;;;;;;;118.18;66.65;;;;;;;5.44;100.00;101409.34;4988594;28;20696;-87
2021/11/12 06:32:16;;;;;;;115.65;65.47;;;;;;;5.45;100.00;101410.19;4990892;28;20077;-85
2021/11/12 06:34:42;;;;;;;110.93;64.68;;;;;;;5.41;100.00;101406.91;5004703;28;20098;-86
2021/11/12 06:37:07;;;;;;;112.05;62.38;;;;;;;5.35;100.00;101415.31;4974575;28;20042;-85
2021/11/12 06:39:33;;;;;;;107.82;65.18;;;;;;;5.30;100.00;101420.16;5007692;28;20049;-86
2021/11/12 06:42:03;;;;;;;106.65;63.80;;;;;;;5.23;100.00;101427.75;4989848;28;20494;-86
2021/11/12 06:52:27;;;;;;;124.97;68.82;;;;;;;5.01;100.00;101428.50;5003657;28;21387;-86
2021/11/12 06:54:53;;;;;;;102.65;57.22;;;;;;;4.87;100.00;101434.81;4973911;28;20147;-87
2021/11/12 06:57:19;;;;;;;114.78;64.82;;;;;;;4.81;100.00;101421.13;5005591;28;20576;-86
2021/11/12 06:59:48;;;;;;;114.22;64.68;;;;;;;4.77;100.00;101416.97;5003056;28;20068;-87
2021/11/12 07:02:16;;;;;;;118.00;68.18;;;;;;;4.77;100.00;101414.31;4968257;28;20038;-87
2021/11/12 07:04:42;;;;;;;117.65;65.20;;;;;;;4.72;100.00;101426.16;4978129;28;20093;-86
2021/11/12 07:07:07;;;;;;;116.05;67.30;;;;;;;4.70;100.00;101417.44;5006426;28;20077;-86
2021/11/12 07:09:34;;;;;;;248.30;81.20;;;;;;;4.64;100.00;101431.16;4988394;28;20053;-87
2021/11/12 07:12:00;;;;;;;182.32;68.28;;;;;;;4.54;100.00;101427.47;5005599;28;20610;-87
2021/11/12 07:14:27;;;;;;;339.58;94.20;;;;;;;4.47;100.00;101426.22;5003681;28;20133;-86
2021/11/12 07:16:53;;;;;;;171.68;73.45;;;;;;;4.47;100.00;101432.38;4987009;28;20029;-86
2021/11/12 07:19:19;;;;;;;161.30;76.35;;;;;;;4.63;100.00;101440.13;5005724;28;20275;-86
2021/11/12 07:21:46;;;;;;;143.40;69.47;;;;;;;4.69;100.00;101437.00;5006752;28;20049;-87
2021/11/12 07:24:11;;;;;;;133.35;73.97;;;;;;;4.78;100.00;101437.31;4980247;28;20132;-87
2021/11/12 07:26:36;;;;;;;133.32;71.00;;;;;;;4.83;100.00;101429.81;4992676;28;20113;-87
2021/11/12 07:29:04;;;;;;;125.65;67.57;;;;;;;4.82;100.00;101426.31;5000964;28;20051;-87
2021/11/12 07:31:29;;;;;;;117.18;64.75;;;;;;;4.89;100.00;101429.38;5005256;28;20068;-86
2021/11/12 07:33:59;;;;;;;114.60;64.82;;;;;;;4.93;100.00;101429.03;4982439;28;20462;-87
2021/11/12 07:36:35;;;;;;;123.10;72.05;;;;;;;5.00;100.00;101442.75;4990797;28;20560;-86
2021/11/12 07:39:09;;;;;;;129.52;74.45;;;;;;;5.07;100.00;101459.13;4987686;28;20056;-86
2021/11/12 07:42:03;;;;;;;113.05;60.13;;;;;;;5.06;100.00;101458.25;4989082;28;20034;-87
2021/11/12 07:47:17;;;;;;;118.03;61.25;;;;;;;5.13;100.00;101443.56;4985623;28;20404;-87
2021/11/12 07:49:57;;;;;;;116.95;61.63;;;;;;;5.15;100.00;101438.97;5006879;28;20053;-86
2021/11/12 07:52:27;;;;;;;117.80;59.47;;;;;;;5.10;100.00;101430.47;4969315;28;20042;-86
2021/11/12 07:54:53;;;;;;;121.03;57.17;;;;;;;5.06;100.00;101431.66;4972321;28;20046;-87
2021/11/12 07:57:20;;;;;;;134.32;65.82;;;;;;;5.09;100.00;101425.25;4996735;28;20029;-86
2021/11/12 07:59:45;;;;;;;135.07;61.97;;;;;;;5.10;100.00;101422.50;5006141;28;20398;-87
2021/11/12 08:02:13;;;;;;;140.98;76.20;;;;;;;5.12;100.00;101420.56;5004488;28;20080;-87
2021/11/12 08:04:39;;;;;;;159.52;75.70;;;;;;;5.09;100.00;101425.25;5001640;28;20491;-86
2021/11/12 08:07:05;;;;;;;152.77;68.97;;;;;;;5.09;100.00;101419.94;4988406;28;20056;-86
2021/11/12 08:09:40;;;;;;;136.27;61.47;;;;;;;5.04;100.00;101414.13;4988055;28;20042;-87
2021/11/12 08:12:11;;;;;;;109.22;58.20;;;;;;;5.00;100.00;101409.97;4973488;28;20510;-86
2021/11/12 08:20:08;;;;;;;101.38;53.25;;;;;;;4.86;100.00;101395.91;4989835;28;20521;-87
2021/11/12 08:22:45;;;;;;;95.55;53.33;;;;;;;4.86;100.00;101392.38;4989180;28;20096;-87
2021/11/12 08:25:22;;;;;;;93.03;47.63;;;;;;;4.74;100.00;101378.16;5003057;28;20042;-86
2021/11/12 08:30:51;;;;;;;95.43;45.75;;;;;;;4.75;100.00;101364.78;4989361;28;20040;-87
2021/11/12 08:33:13;;;;;;;93.78;49.53;;;;;;;4.71;100.00;101379.22;5001545;28;20042;-86
2021/11/12 08:40:56;;;;;;;92.32;47.25;;;;;;;4.68;100.00;101366.16;5002086;28;20069;-86
2021/11/12 08:43:43;;;;;;;85.47;45.00;;;;;;;4.66;100.00;101364.56;4969734;28;20058;-86
2021/11/12 08:46:23;;;;;;;90.45;47.28;;;;;;;4.62;100.00;101373.75;4983150;28;20050;-86
2021/11/12 08:48:59;;;;;;;89.47;46.65;;;;;;;4.59;100.00;101374.81;4990796;28;20042;-86
2021/11/12 08:51:26;;;;;;;87.20;47.78;;;;;;;4.59;100.00;101384.59;4986189;28;20042;-86
2021/11/12 08:53:52;;;;;;;89.05;41.47;;;;;;;4.51;100.00;101372.69;4986778;28;20061;-86
2021/11/12 08:56:19;;;;;;;85.40;44.72;;;;;;;4.43;100.00;101379.53;4983144;28;20102;-86
2021/11/12 08:58:46;;;;;;;90.78;45.70;;;;;;;4.36;100.00;101389.75;4987955;28;20040;-87
2021/11/12 09:01:12;;;;;;;96.53;48.55;;;;;;;4.36;100.00;101388.91;4986282;28;20042;-86
2021/11/12 09:03:38;;;;;;;100.13;48.42;;;;;;;4.33;100.00;101402.44;5003865;28;20037;-87
2021/11/12 09:06:06;;;;;;;99.15;45.05;;;;;;;4.26;100.00;101388.72;4994309;28;20068;-86
2021/11/12 09:08:33;;;;;;;107.72;53.00;;;;;;;4.27;100.00;101391.25;4981574;28;20100;-86
2021/11/12 09:11:01;;;;;;;116.95;55.38;;;;;;;4.29;100.00;101375.22;4973058;28;20065;-87
2021/11/12 09:13:30;;;;;;;113.78;51.05;;;;;;;4.32;100.00;101371.50;5007069;28;20037;-87
2021/11/12 09:16:02;;;;;;;121.55;57.45;;;;;;;4.33;100.00;101375.84;4982937;28;20046;-86
2021/11/12 09:18:29;;;;;;;130.07;58.28;;;;;;;4.33;100.00;101365.22;5001377;28;20042;-87
2021/11/12 09:20:54;;;;;;;138.93;60.10;;;;;;;4.39;100.00;101364.78;4989021;28;20367;-86
2021/11/12 09:23:20;;;;;;;140.88;59.72;;;;;;;4.37;100.00;101364.88;4978493;28;20057;-86
2021/11/12 09:25:45;;;;;;;144.65;59.58;;;;;;;4.34;100.00;101358.94;4987226;28;20042;-87
2021/11/12 09:28:14;;;;;;;150.05;64.40;;;;;;;4.33;100.00;101362.56;4987433;28;20506;-86
2021/11/12 09:30:39;;;;;;;155.77;61.08;;;;;;;4.33;100.00;101355.44;5003727;28;20030;-86
2021/11/12 09:33:06;;;;;;;162.10;67.13;;;;;;;4.28;100.00;101358.41;4983869;28;20479;-86
2021/11/12 09:35:33;;;;;;;151.07;59.60;;;;;;;4.32;100.00;101348.44;4998245;28;20042;-86
2021/11/12 09:37:58;;;;;;;146.80;59.65;;;;;;;4.30;100.00;101345.88;4965622;28;20039;-86
2021/11/12 09:40:24;;;;;;;136.65;51.15;;;;;;;4.24;100.00;101337.50;4992488;28;20128;-86
2021/11/12 09:42:51;;;;;;;158.73;63.35;;;;;;;4.29;100.00;101346.84;4987205;28;20080;-86
2021/11/12 09:45:18;;;;;;;147.43;50.85;;;;;;;4.24;100.00;101341.00;4985942;28;20048;-86
2021/11/12 09:47:44;;;;;;;157.27;60.40;;;;;;;4.25;100.00;101350.66;5002783;28;20038;-87
2021/11/12 09:50:15;;;;;;;151.35;56.33;;;;;;;4.25;100.00;101342.69;4982587;28;20095;-86
2021/11/12 09:52:42;;;;;;;155.32;62.92;;;;;;;4.27;100.00;101343.44;4989046;28;20541;-87
2021/11/12 09:55:09;;;;;;;163.43;63.88;;;;;;;4.25;100.00;101334.72;4989029;28;20333;-86
2021/11/12 09:57:34;;;;;;;159.32;65.70;;;;;;;4.36;100.00;101335.78;4986757;28;20049;-85
2021/11/12 10:00:03;;;;;;;159.18;62.70;;;;;;;4.40;100.00;101342.53;4974644;28;20396;-87
2021/11/12 10:02:30;;;;;;;167.50;66.35;;;;;;;4.41;100.00;101328.31;4984343;28;20058;-86
2021/11/12 10:04:57;;;;;;;161.43;67.43;;;;;;;4.50;100.00;101327.66;4989265;28;20050;-87
2021/11/12 10:07:23;;;;;;;158.25;62.80;;;;;;;4.58;100.00;101332.41;5004897;28;20046;-86
2021/11/12 10:10:21;;;;;;;158.32;65.50;;;;;;;4.56;100.00;101321.03;4983890;28;20046;-86
2021/11/12 10:12:49;;;;;;;158.93;63.85;;;;;;;4.64;100.00;101308.88;4956881;28;20042;-87
2021/11/12 10:15:19;;;;;;;155.43;63.53;;;;;;;4.68;100.00;101310.34;5006789;28;20085;-86
2021/11/12 10:17:47;;;;;;;135.45;55.90;;;;;;;4.66;100.00;101306.09;5005928;28;20069;-86
2021/11/12 10:20:17;;;;;;;151.63;64.75;;;;;;;4.68;100.00;101305.00;5006848;28;20536;-87
2021/11/12 10:22:45;;;;;;;137.32;52.97;;;;;;;4.58;100.00;101297.84;5005160;28;20482;-86
2021/11/12 10:25:11;;;;;;;140.02;55.20;;;;;;;4.55;100.00;101295.44;4988592;28;20177;-87
2021/11/12 10:27:38;;;;;;;149.88;64.47;;;;;;;4.61;100.00;101302.94;4976855;28;20038;-86
2021/11/12 10:30:14;;;;;;;135.75;61.17;;;;;;;4.71;100.00;101296.81;4985316;28;20034;-87
2021/11/12 10:32:40;;;;;;;139.57;63.70;;;;;;;4.79;100.00;101298.06;4973785;28;20084;-86
2021/11/12 10:35:22;;;;;;;135.68;59.13;;;;;;;4.81;100.00;101286.34;4991141;28;20042;-87
2021/11/12 10:37:50;;;;;;;134.98;59.40;;;;;;;4.78;100.00;101288.41;4988702;28;20266;-86
2021/11/12 10:40:22;;;;;;;126.18;53.03;;;;;;;4.81;100.00;101288.16;4987168;28;20517;-86
2021/11/12 10:42:53;;;;;;;126.60;58.20;;;;;;;4.87;100.00;101283.22;4985536;28;20475;-87
2021/11/12 10:45:27;;;;;;;133.82;59.78;;;;;;;4.92;100.00;101273.09;4986220;28;20042;-87
2021/11/12 10:47:55;;;;;;;127.05;51.25;;;;;;;4.82;100.00;101273.91;4971854;28;20042;-86
2021/11/12 10:50:33;;;;;;;130.75;58.80;;;;;;;4.95;100.00;101270.22;4987926;28;20559;-86
2021/11/12 10:53:16;;;;;;;130.15;60.40;;;;;;;5.05;100.00;101254.38;4968223;28;20046;-87
2021/11/12 10:55:45;;;;;;;123.07;52.50;;;;;;;4.91;100.00;101251.94;5002967;28;20034;-86
2021/11/12 10:58:13;;;;;;;;;;;;;;;4.93;100.00;101255.31;4967789;28;20114;-87
2021/11/12 11:00:47;;;;;;;115.10;58.20;;;;;;;4.92;100.00;101248.28;4986175;28;19921;-87
2021/11/12 11:03:22;;;;;;;122.72;56.60;;;;;;;4.95;100.00;101250.75;4983316;28;20038;-87
2021/11/12 11:06:03;;;;;;;113.47;55.92;;;;;;;5.01;100.00;101252.94;4999774;28;20057;-87
2021/11/12 11:08:32;;;;;;;113.43;52.83;;;;;;;5.05;100.00;101256.19;5005012;28;20458;-86
2021/11/12 11:11:02;;;;;;;122.20;58.53;;;;;;;5.09;100.00;101247.88;4972807;28;20096;-87
2021/11/12 11:13:37;;;;;;;119.07;59.28;;;;;;;5.14;100.00;101243.03;5005912;28;20129;-86
2021/11/12 11:16:05;;;;;;;123.88;54.22;;;;;;;5.11;100.00;101245.94;4974453;28;20049;-87
2021/11/12 11:18:35;;;;;;;120.35;58.42;;;;;;;5.19;100.00;101224.06;4982380;28;20053;-87
2021/11/12 11:21:06;;;;;;;120.63;56.17;;;;;;;5.27;100.00;101223.47;5002698;28;20050;-86
2021/11/12 11:23:46;;;;;;;111.40;56.33;;;;;;;5.29;100.00;101230.34;4997458;28;20386;-86
2021/11/12 11:26:15;;;;;;;121.65;59.50;;;;;;;5.31;100.00;101232.91;4994208;28;20050;-87
2021/11/12 11:28:42;;;;;;;;;;;;;;;5.30;100.00;101236.53;4985869;28;20038;-87
2021/11/12 11:31:10;;;;;;;110.40;50.33;;;;;;;5.25;100.00;101220.09;4989527;28;19913;-86
2021/11/12 11:33:38;;;;;;;110.43;55.10;;;;;;;5.29;100.00;101210.88;5003901;28;20038;-87
2021/11/12 11:36:06;;;;;;;108.32;52.20;;;;;;;5.32;100.00;101205.31;4982612;28;20124;-86
2021/11/12 11:38:34;;;;;;;106.93;54.92;;;;;;;5.40;100.00;101203.75;4983200;28;20038;-86
2021/11/12 11:41:03;;;;;;;99.10;54.63;;;;;;;5.49;100.00;101193.34;4957784;28;20050;-87
2021/11/12 11:43:30;;;;;;;92.72;46.58;;;;;;;5.48;100.00;101205.81;4984484;28;20541;-86
2021/11/12 11:45:57;;;;;;;99.68;51.45;;;;;;;5.53;100.00;101184.16;4996013;28;20390;-86
2021/11/12 11:48:23;;;;;;;101.78;53.85;;;;;;;5.62;100.00;101178.09;4962537;28;20424;-87
2021/11/12 11:50:51;;;;;;;105.60;54.00;;;;;;;5.65;100.00;101162.72;4955047;28;20042;-86
2021/11/12 11:53:29;;;;;;;104.72;52.40;;;;;;;5.79;100.00;101172.25;4984168;28;20444;-86
2021/11/12 11:56:14;;;;;;;95.32;46.83;;;;;;;5.87;100.00;101182.31;4963233;28;20693;-87
2021/11/12 11:58:46;;;;;;;103.90;49.95;;;;;;;5.94;100.00;101178.19;4978936;28;20498;-87
2021/11/12 12:01:15;;;;;;;98.03;54.42;;;;;;;6.04;100.00;101189.81;4965441;28;20149;-86
2021/11/12 12:03:42;;;;;;;;;;;;;;;6.00;100.00;101182.19;4978670;28;20478;-88
2021/11/12 12:06:19;;;;;;;98.88;49.40;;;;;;;5.87;100.00;101187.63;4981507;28;20041;-87
2021/11/12 12:09:03;;;;;;;103.25;53.65;;;;;;;5.88;100.00;101178.66;4957052;28;20038;-86
2021/11/12 12:11:29;;;;;;;105.35;52.03;;;;;;;5.87;100.00;101192.97;4990090;28;20061;-86
2021/11/12 12:14:27;;;;;;;105.93;58.58;;;;;;;5.96;100.00;101191.41;4975612;28;20066;-87
2021/11/12 12:17:06;;;;;;;117.10;55.78;;;;;;;5.97;100.00;101183.25;4939402;28;20030;-89
2021/11/12 12:20:00;;;;;;;112.97;58.40;;;;;;;6.00;100.00;101175.03;4987930;28;20054;-86
2021/11/12 13:20:29;;;;;;;68.07;43.28;;;;;;;6.63;100.00;101057.81;4991324;28;20096;-86
2021/11/12 13:26:03;;;;;;;65.88;41.13;;;;;;;6.73;100.00;101057.84;5009241;28;20045;-87
2021/11/12 13:28:34;;;;;;;63.75;41.10;;;;;;;6.74;100.00;101062.22;4993376;28;20386;-86
2021/11/12 13:31:22;;;;;;;65.05;40.35;;;;;;;6.75;100.00;101054.06;4997106;28;20066;-85
2021/11/12 13:33:52;;;;;;;62.78;40.67;;;;;;;6.76;100.00;101053.09;4997327;28;20065;-88
2021/11/12 13:36:23;;;;;;;58.78;37.92;;;;;;;6.80;100.00;101043.00;4999737;28;20042;-88
2021/11/12 13:39:05;;;;;;;62.17;40.25;;;;;;;6.88;100.00;101045.03;4993220;28;20675;-86
2021/11/12 13:41:35;;;;;;;53.60;32.13;;;;;;;6.88;100.00;101045.03;5006917;28;20093;-87
2021/11/12 13:44:14;;;;;;;59.55;36.63;;;;;;;6.97;100.00;101039.72;4998810;28;20046;-87
2021/11/12 13:46:52;;;;;;;56.55;38.10;;;;;;;7.11;100.00;101045.66;5001287;28;20065;-87
2021/11/12 13:49:33;;;;;;;51.42;36.13;;;;;;;7.12;100.00;101034.00;5006254;28;20100;-86
2021/11/12 13:52:09;;;;;;;51.85;32.72;;;;;;;7.17;100.00;101040.63;5002955;28;20133;-90
2021/11/12 13:54:40;;;;;;;54.22;35.65;;;;;;;7.21;100.00;101027.84;4993643;28;20100;-88
2021/11/12 13:57:15;;;;;;;50.47;35.50;;;;;;;7.26;100.00;101025.59;4982419;28;20043;-88
2021/11/12 13:59:51;;;;;;;55.28;35.53;;;;;;;7.24;100.00;101020.41;4993235;28;20117;-89
2021/11/12 14:02:16;;;;;;;47.20;30.02;;;;;;;7.26;100.00;101009.59;5009938;28;20065;-89
2021/11/12 14:04:42;;;;;;;51.35;33.08;;;;;;;7.27;100.00;101000.59;5008185;28;20435;-89
2021/11/12 14:07:22;;;;;;;47.03;31.83;;;;;;;7.32;100.00;100995.69;4980744;28;20046;-88
2021/11/12 14:10:08;;;;;;;50.53;32.25;;;;;;;7.35;100.00;100982.06;4967075;28;20270;-88
2021/11/12 14:12:34;;;;;;;47.72;32.47;;;;;;;7.35;100.00;100979.41;4973915;28;20121;-88
2021/11/12 14:15:30;;;;;;;46.10;33.05;;;;;;;7.41;100.00;100970.00;4958915;28;20114;-88
2021/11/12 14:23:51;;;;;;;45.60;30.85;;;;;;;7.39;100.00;100962.13;4991348;28;20446;-90
2021/11/12 14:26:28;;;;;;;44.33;31.05;;;;;;;7.43;100.00;100960.03;4948508;28;20442;-90
2021/11/12 14:29:02;;;;;;;44.00;30.45;;;;;;;7.42;100.00;100948.50;4948621;28;20049;-87
2021/11/12 14:31:41;;;;;;;44.53;28.90;;;;;;;7.44;100.00;100953.69;4961952;28;20489;-88
2021/11/12 14:34:14;;;;;;;40.90;27.17;;;;;;;7.46;100.00;100947.22;5002436;28;20050;-90
2021/11/12 14:45:33;;;;;;;38.15;24.80;;;;;;;7.50;100.00;100933.59;4989413;28;20053;-88
2021/11/12 14:53:17;;;;;;;36.90;23.92;;;;;;;7.52;98.65;100940.47;4967050;28;20097;-91
2021/11/12 14:55:51;;;;;;;41.55;24.15;;;;;;;7.56;98.02;100936.53;4973981;28;20066;-88
2021/11/12 14:58:18;;;;;;;38.67;23.60;;;;;;;7.55;97.81;100924.16;4965799;28;20070;-90
2021/11/12 15:00:45;;;;;;;36.83;23.42;;;;;;;7.54;97.44;100918.97;4961267;28;20042;-88
2021/11/12 15:03:11;;;;;;;38.83;23.55;;;;;;;7.57;97.62;100914.19;4985523;28;20038;-88
2021/11/12 15:05:39;;;;;;;33.40;23.55;;;;;;;7.55;97.58;100910.81;4971853;28;20517;-87
2021/11/12 15:08:10;;;;;;;38.72;22.30;;;;;;;7.53;97.16;100906.59;4963355;28;20039;-88
2021/11/12 15:10:37;;;;;;;35.17;21.65;;;;;;;7.48;96.37;100904.38;4980617;28;20129;-86
2021/11/12 15:13:03;;;;;;;33.60;21.33;;;;;;;7.49;96.63;100899.88;4957830;28;20093;-89
2021/11/12 15:15:28;;;;;;;39.40;22.60;;;;;;;7.43;95.96;100896.78;4974215;28;20527;-87
2021/11/12 15:17:55;;;;;;;31.60;20.85;;;;;;;7.46;96.28;100907.16;4950960;28;20050;-86
2021/11/12 15:20:20;;;;;;;34.00;21.83;;;;;;;7.42;96.11;100903.13;4995579;28;20053;-87
2021/11/12 15:25:39;;;;;;;37.90;21.83;;;;;;;7.38;96.31;100903.53;4989270;28;20062;-89
2021/11/12 15:28:28;;;;;;;38.40;22.23;;;;;;;7.36;96.60;100903.66;4971606;28;20104;-86
2021/11/12 15:33:34;;;;;;;31.88;20.25;;;;;;;7.29;96.77;100891.03;4990620;28;20395;-89
2021/11/12 15:36:04;;;;;;;33.25;21.83;;;;;;;7.28;96.92;100884.84;4971543;28;20045;-87
2021/11/12 15:38:37;;;;;;;32.83;22.20;;;;;;;7.28;96.13;100889.31;4959138;28;20042;-89
2021/11/12 15:43:59;;;;;;;33.25;23.45;;;;;;;7.26;97.32;100869.94;4974306;28;20097;-87
2021/11/12 15:46:31;;;;;;;32.58;22.38;;;;;;;7.20;96.56;100874.84;4953328;28;20042;-88
2021/11/12 15:48:58;;;;;;;34.22;20.92;;;;;;;7.17;96.75;100872.47;4973957;28;20050;-88
2021/11/12 15:51:32;;;;;;;33.45;22.45;;;;;;;7.17;97.25;100884.97;4987889;28;20359;-88
2021/11/12 16:09:44;;;;;;;30.88;20.95;;;;;;;7.08;97.41;100853.78;4978110;28;20042;-88
2021/11/12 16:14:47;;;;;;;30.95;20.45;;;;;;;7.01;96.98;100838.31;4966197;28;20038;-88
2021/11/12 16:20:24;;;;;;;28.23;17.70;;;;;;;6.95;97.21;100838.88;4970658;28;20053;-86
2021/11/12 16:25:38;;;;;;;30.23;19.90;;;;;;;6.92;97.17;100828.50;4942051;28;20034;-85
2021/11/12 16:28:05;;;;;;;32.03;20.87;;;;;;;6.93;97.76;100832.88;4974777;28;20410;-86
2021/11/12 16:30:35;;;;;;;29.25;19.67;;;;;;;6.92;97.19;100823.16;4972398;28;20050;-86
2021/11/12 16:33:04;;;;;;;27.05;18.63;;;;;;;6.92;96.94;100817.00;4970565;28;20050;-87
2021/11/12 16:35:33;;;;;;;26.50;18.70;;;;;;;6.89;97.12;100810.09;4988163;28;20455;-86
2021/11/12 16:38:11;;;;;;;28.02;18.15;;;;;;;6.89;96.78;100812.78;4982703;28;20137;-86